Time;durP1;ratioP1;P1;durP2;ratioP2;P2;SDS_P1;SDS_P2;PMS_P1;PMS_P2;Temp;Humidity;BMP_temperature;BMP_pressure;BME280_temperature;BME280_humidity;BME280_pressure;Samples;Min_cycle;Max_cycle;Signal;HPM_P1;HPM_P2
2022/03/13 00:03:09;;;;;;;7.43;3.60;;;;;;;;;;10268999;28;20090;-72
2022/03/13 00:08:18;;;;;;;9.73;4.17;;;;;;;;;;10282315;28;20515;-72
2022/03/13 00:13:24;;;;;;;10.30;3.80;;;;;;;;;;10280513;28;20035;-72
2022/03/13 00:18:35;;;;;;;9.70;4.40;;;;;;;;;;10283480;28;20492;-70
2022/03/13 00:23:38;;;;;;;7.63;3.80;;;;;;;;;;10265416;28;20129;-70
2022/03/13 00:28:45;;;;;;;5.17;2.00;;;;;;;;;;10275609;28;20057;-71
2022/03/13 00:33:48;;;;;;;9.40;4.30;;;;;;;;;;10258455;28;20051;-71
2022/03/13 00:38:51;;;;;;;7.33;3.37;;;;;;;;;;10277057;28;20130;-71
2022/03/13 00:43:56;;;;;;;8.10;3.33;;;;;;;;;;10278185;28;20569;-73
2022/03/13 00:48:59;;;;;;;4.43;2.17;;;;;;;;;;10263633;28;20042;-68
2022/03/13 00:54:02;;;;;;;8.87;3.13;;;;;;;;;;10278754;28;20583;-72
2022/03/13 00:59:06;;;;;;;6.07;3.30;;;;;;;;;;10262180;28;20510;-70
2022/03/13 01:04:09;;;;;;;4.78;2.13;;;;;;;;;;10269952;28;20038;-71
2022/03/13 01:09:12;;;;;;;7.73;3.93;;;;;;;;;;10272695;28;20046;-70
2022/03/13 01:14:17;;;;;;;9.43;3.43;;;;;;;;;;10281459;28;20090;-70
2022/03/13 01:19:20;;;;;;;9.50;4.43;;;;;;;;;;10279162;28;20076;-70
2022/03/13 01:24:31;;;;;;;12.73;4.50;;;;;;;;;;10276826;28;20049;-71
2022/03/13 01:29:35;;;;;;;13.10;4.43;;;;;;;;;;10278530;28;20274;-70
2022/03/13 01:34:41;;;;;;;14.57;4.43;;;;;;;;;;10270720;28;20047;-69
2022/03/13 01:39:44;;;;;;;7.93;3.27;;;;;;;;;;10277174;28;20047;-71
2022/03/13 01:44:51;;;;;;;10.87;4.30;;;;;;;;;;10262705;28;20070;-71
2022/03/13 01:49:54;;;;;;;15.57;4.43;;;;;;;;;;10282790;28;20151;-71
2022/03/13 01:54:58;;;;;;;15.60;5.10;;;;;;;;;;10263163;28;20101;-72
2022/03/13 02:00:02;;;;;;;10.43;4.37;;;;;;;;;;10266162;28;20574;-71
2022/03/13 02:05:05;;;;;;;11.95;4.05;;;;;;;;;;10281530;28;20493;-71
2022/03/13 02:10:10;;;;;;;8.82;4.18;;;;;;;;;;10269868;28;20077;-70
2022/03/13 02:15:15;;;;;;;6.70;2.63;;;;;;;;;;10275734;28;20186;-71
2022/03/13 02:20:22;;;;;;;13.03;4.33;;;;;;;;;;10292130;28;20039;-73
2022/03/13 02:25:34;;;;;;;12.00;3.77;;;;;;;;;;10304795;28;20035;-70
2022/03/13 02:30:39;;;;;;;13.60;4.30;;;;;;;;;;10291746;28;20043;-71
2022/03/13 02:35:44;;;;;;;8.68;3.75;;;;;;;;;;10310818;28;20053;-73
2022/03/13 02:40:48;;;;;;;8.83;2.93;;;;;;;;;;10287672;28;20057;-72
2022/03/13 02:45:52;;;;;;;12.27;3.90;;;;;;;;;;10279580;28;20042;-72
2022/03/13 02:50:56;;;;;;;9.07;3.13;;;;;;;;;;10268249;28;20539;-72
2022/03/13 02:56:00;;;;;;;10.53;3.77;;;;;;;;;;10276514;28;20047;-71
2022/03/13 03:01:04;;;;;;;11.23;3.93;;;;;;;;;;10275125;28;20054;-72
2022/03/13 03:06:07;;;;;;;7.80;3.60;;;;;;;;;;10306790;28;20042;-72
2022/03/13 03:11:11;;;;;;;9.20;3.47;;;;;;;;;;10278918;28;20093;-73
2022/03/13 03:16:15;;;;;;;8.50;3.20;;;;;;;;;;10281305;28;20039;-73
2022/03/13 03:21:18;;;;;;;11.73;3.60;;;;;;;;;;10288174;28;20452;-72
2022/03/13 03:26:22;;;;;;;8.50;3.40;;;;;;;;;;10305356;28;20038;-73
2022/03/13 03:31:25;;;;;;;;;;;;;;;;;;10295963;28;20043;-73
2022/03/13 03:36:28;;;;;;;9.33;3.57;;;;;;;;;;10262216;28;20406;-72
2022/03/13 03:41:32;;;;;;;6.70;2.70;;;;;;;;;;10279756;28;20065;-72
2022/03/13 03:46:35;;;;;;;9.23;3.70;;;;;;;;;;10267682;28;20112;-72
2022/03/13 03:51:39;;;;;;;;;;;;;;;;;;10275305;28;20038;-73
2022/03/13 03:56:44;;;;;;;8.83;3.43;;;;;;;;;;10275110;28;19930;-73
2022/03/13 04:01:47;;;;;;;10.23;3.60;;;;;;;;;;10258070;28;20039;-72
2022/03/13 04:06:53;;;;;;;7.73;3.67;;;;;;;;;;10275106;28;20426;-73
2022/03/13 04:11:58;;;;;;;9.93;3.90;;;;;;;;;;10266600;28;20582;-70
2022/03/13 04:17:02;;;;;;;7.63;3.67;;;;;;;;;;10275225;28;20264;-72
2022/03/13 04:22:06;;;;;;;11.95;3.80;;;;;;;;;;10277561;28;20035;-69
2022/03/13 04:27:11;;;;;;;8.43;3.08;;;;;;;;;;10263314;28;20518;-72
2022/03/13 04:32:14;;;;;;;12.07;3.58;;;;;;;;;;10275351;28;20046;-72
2022/03/13 04:37:18;;;;;;;7.73;3.17;;;;;;;;;;10263449;28;20046;-73
2022/03/13 04:42:22;;;;;;;9.52;3.50;;;;;;;;;;10279095;28;20327;-72
2022/03/13 04:47:31;;;;;;;7.33;3.27;;;;;;;;;;10263779;28;20074;-73
2022/03/13 04:52:34;;;;;;;8.30;3.77;;;;;;;;;;10275630;28;20089;-72
2022/03/13 04:57:39;;;;;;;4.97;2.70;;;;;;;;;;10273039;28;20133;-70
2022/03/13 05:02:43;;;;;;;8.93;3.15;;;;;;;;;;10274585;28;20042;-72
2022/03/13 05:07:46;;;;;;;;;;;;;;;;;;10265028;28;20093;-73
2022/03/13 05:12:50;;;;;;;9.03;3.50;;;;;;;;;;10278108;28;19988;-73
2022/03/13 05:17:53;;;;;;;10.03;3.80;;;;;;;;;;10279910;28;20042;-73
2022/03/13 05:22:57;;;;;;;7.87;3.40;;;;;;;;;;10264529;28;20078;-73
2022/03/13 05:28:03;;;;;;;14.90;3.80;;;;;;;;;;10267751;28;20046;-72
2022/03/13 05:33:07;;;;;;;10.77;4.00;;;;;;;;;;10275000;28;20027;-72
2022/03/13 05:38:10;;;;;;;7.57;2.97;;;;;;;;;;10261966;28;20042;-74
2022/03/13 05:43:18;;;;;;;8.03;2.77;;;;;;;;;;10279482;28;20498;-72
2022/03/13 05:48:25;;;;;;;1.07;0.87;;;;;;;;;;10275630;28;21005;-73
2022/03/13 05:53:29;;;;;;;10.37;3.77;;;;;;;;;;10277677;28;20105;-73
2022/03/13 05:58:34;;;;;;;8.70;3.50;;;;;;;;;;10271021;28;20035;-74
2022/03/13 06:03:38;;;;;;;12.17;4.07;;;;;;;;;;10277952;28;20043;-73
2022/03/13 06:08:41;;;;;;;8.48;3.22;;;;;;;;;;10273929;28;20071;-73
2022/03/13 06:13:46;;;;;;;10.80;4.07;;;;;;;;;;10276165;28;20456;-74
2022/03/13 06:18:49;;;;;;;10.50;4.03;;;;;;;;;;10268777;28;20067;-72
2022/03/13 06:23:52;;;;;;;9.13;3.90;;;;;;;;;;10273620;28;20710;-72
2022/03/13 06:28:57;;;;;;;10.87;3.57;;;;;;;;;;10268919;28;20518;-72
2022/03/13 06:34:00;;;;;;;5.00;2.53;;;;;;;;;;10255519;28;20065;-73
2022/03/13 06:39:04;;;;;;;7.85;4.00;;;;;;;;;;10274029;28;20451;-73
2022/03/13 06:44:09;;;;;;;13.17;4.37;;;;;;;;;;10269645;28;20058;-72
2022/03/13 06:49:11;;;;;;;;;;;;;;;;;;10282535;28;20309;-72
2022/03/13 06:54:14;;;;;;;12.93;4.80;;;;;;;;;;10292893;28;19928;-72
2022/03/13 06:59:19;;;;;;;13.55;5.15;;;;;;;;;;10274923;28;20450;-72
2022/03/13 07:04:21;;;;;;;10.98;6.00;;;;;;;;;;10279603;28;20133;-73
2022/03/13 07:09:26;;;;;;;12.10;5.97;;;;;;;;;;10278355;28;20468;-73
2022/03/13 07:14:30;;;;;;;24.10;11.15;;;;;;;;;;10269702;28;20329;-72
2022/03/13 07:19:33;;;;;;;12.75;6.50;;;;;;;;;;10281871;28;20038;-74
2022/03/13 07:24:36;;;;;;;;;;;;;;;;;;10281253;28;20784;-73
2022/03/13 07:29:39;;;;;;;;;;;;;;;;;;10265011;28;19937;-73
2022/03/13 07:34:43;;;;;;;13.43;7.20;;;;;;;;;;10282705;28;19930;-73
2022/03/13 07:39:47;;;;;;;14.95;7.53;;;;;;;;;;10266096;28;20130;-73
2022/03/13 07:44:50;;;;;;;12.45;7.43;;;;;;;;;;10263915;28;20039;-73
2022/03/13 07:49:55;;;;;;;12.80;7.65;;;;;;;;;;10279758;28;20043;-73
2022/03/13 07:54:58;;;;;;;12.45;7.80;;;;;;;;;;10269045;28;20125;-74
2022/03/13 08:00:00;;;;;;;;;;;;;;;;;;10276576;28;20059;-74
2022/03/13 08:05:05;;;;;;;13.25;7.88;;;;;;;;;;10289176;28;19929;-72
2022/03/13 08:10:08;;;;;;;13.00;8.43;;;;;;;;;;10280347;28;20499;-72
2022/03/13 08:15:11;;;;;;;13.93;9.00;;;;;;;;;;10300504;23;20487;-75
2022/03/13 08:20:16;;;;;;;14.43;8.55;;;;;;;;;;10261576;28;20034;-75
2022/03/13 08:25:19;;;;;;;13.18;10.40;;;;;;;;;;10275276;28;20051;-74
2022/03/13 08:30:22;;;;;;;14.20;8.75;;;;;;;;;;10278691;28;20118;-75
2022/03/13 08:35:28;;;;;;;13.98;8.88;;;;;;;;;;10271278;28;20092;-76
2022/03/13 08:40:31;;;;;;;13.90;9.10;;;;;;;;;;10269407;28;20380;-75
2022/03/13 08:45:34;;;;;;;14.18;9.02;;;;;;;;;;10263628;28;20150;-77
2022/03/13 08:50:38;;;;;;;14.00;8.98;;;;;;;;;;10275365;28;20038;-68
2022/03/13 08:55:42;;;;;;;14.75;8.85;;;;;;;;;;10254679;28;20085;-69
2022/03/13 09:00:50;;;;;;;14.63;9.60;;;;;;;;;;10269091;28;20088;-68
2022/03/13 09:05:56;;;;;;;14.20;8.75;;;;;;;;;;10270466;28;20135;-68
2022/03/13 09:10:59;;;;;;;14.35;9.00;;;;;;;;;;10274886;28;20145;-68
2022/03/13 09:16:03;;;;;;;15.07;9.27;;;;;;;;;;10280916;28;20054;-68
2022/03/13 09:21:08;;;;;;;17.13;9.38;;;;;;;;;;10270789;28;20042;-66
2022/03/13 09:26:12;;;;;;;14.82;9.98;;;;;;;;;;10278957;28;20558;-68
2022/03/13 09:31:16;;;;;;;14.52;9.30;;;;;;;;;;10260581;28;20304;-67
2022/03/13 09:36:20;;;;;;;16.17;9.27;;;;;;;;;;10256241;28;20043;-68
2022/03/13 09:41:24;;;;;;;15.25;9.93;;;;;;;;;;10270261;28;20122;-67
2022/03/13 09:46:27;;;;;;;15.25;9.70;;;;;;;;;;10257704;28;20085;-68
2022/03/13 09:51:32;;;;;;;14.20;9.50;;;;;;;;;;10254338;28;20417;-68
2022/03/13 09:56:38;;;;;;;14.27;9.77;;;;;;;;;;10267869;28;20034;-69
2022/03/13 10:01:41;;;;;;;17.33;9.80;;;;;;;;;;10246727;28;20045;-67
2022/03/13 10:06:59;;;;;;;13.98;9.65;;;;;;;;;;10267261;28;20039;-66
2022/03/13 10:12:05;;;;;;;14.35;9.82;;;;;;;;;;10272960;28;20050;-67
2022/03/13 10:17:25;;;;;;;13.40;9.15;;;;;;;;;;10257365;28;20035;-67
2022/03/13 10:22:30;;;;;;;16.08;9.95;;;;;;;;;;10252606;28;20049;-67
2022/03/13 10:27:35;;;;;;;17.35;9.93;;;;;;;;;;10273925;28;20530;-68
2022/03/13 10:32:38;;;;;;;15.40;9.30;;;;;;;;;;10260192;28;20043;-68
2022/03/13 10:37:43;;;;;;;13.43;9.65;;;;;;;;;;10276151;28;20031;-68
2022/03/13 10:42:48;;;;;;;14.95;10.02;;;;;;;;;;10278696;28;20038;-67
2022/03/13 10:47:53;;;;;;;17.42;11.27;;;;;;;;;;10272906;28;20041;-67
2022/03/13 10:53:09;;;;;;;16.02;10.95;;;;;;;;;;10265001;28;20054;-67
2022/03/13 10:58:16;;;;;;;16.70;10.65;;;;;;;;;;10269245;28;20126;-67
2022/03/13 11:03:20;;;;;;;16.80;11.18;;;;;;;;;;10274089;28;20177;-67
2022/03/13 11:08:24;;;;;;;14.52;10.57;;;;;;;;;;10276377;28;20141;-68
2022/03/13 11:13:28;;;;;;;15.48;10.80;;;;;;;;;;10263241;28;20109;-68
2022/03/13 11:18:32;;;;;;;12.95;9.70;;;;;;;;;;10276829;28;20101;-69
2022/03/13 11:23:36;;;;;;;12.98;9.40;;;;;;;;;;10264016;28;20130;-67
2022/03/13 11:28:42;;;;;;;13.68;9.77;;;;;;;;;;10256205;28;20035;-67
2022/03/13 11:33:49;;;;;;;14.38;9.73;;;;;;;;;;10256176;28;20403;-68
2022/03/13 11:38:56;;;;;;;12.70;9.13;;;;;;;;;;10269129;28;20458;-67
2022/03/13 11:44:04;;;;;;;11.95;9.00;;;;;;;;;;10258522;28;20050;-69
2022/03/13 11:49:17;;;;;;;13.60;8.85;;;;;;;;;;10266028;28;20126;-69
2022/03/13 11:54:35;;;;;;;16.65;9.05;;;;;;;;;;10264923;28;20113;-69
2022/03/13 11:59:40;;;;;;;12.50;8.60;;;;;;;;;;10264027;28;20142;-67
2022/03/13 12:04:43;;;;;;;11.88;8.52;;;;;;;;;;10249016;28;20126;-67
2022/03/13 12:09:46;;;;;;;14.18;10.82;;;;;;;;;;10277410;28;20050;-69
2022/03/13 12:14:53;;;;;;;14.48;8.93;;;;;;;;;;10264630;28;20077;-68
2022/03/13 12:19:57;;;;;;;11.88;8.68;;;;;;;;;;10267280;28;20051;-68
2022/03/13 12:25:02;;;;;;;13.15;8.68;;;;;;;;;;10258608;28;20070;-68
2022/03/13 12:30:08;;;;;;;16.08;10.20;;;;;;;;;;10271321;28;20047;-67
2022/03/13 12:35:11;;;;;;;13.75;9.25;;;;;;;;;;10268459;28;20515;-69
2022/03/13 12:40:14;;;;;;;16.50;11.00;;;;;;;;;;10274000;28;20432;-67
2022/03/13 12:45:21;;;;;;;18.48;11.05;;;;;;;;;;10278680;28;21198;-67
2022/03/13 12:50:26;;;;;;;15.70;10.93;;;;;;;;;;10282476;28;20954;-68
2022/03/13 12:55:30;;;;;;;14.18;9.25;;;;;;;;;;10272116;28;20090;-67
2022/03/13 13:00:36;;;;;;;16.60;9.95;;;;;;;;;;10254150;28;20238;-68
2022/03/13 13:05:48;;;;;;;14.52;9.25;;;;;;;;;;10264291;28;20431;-68
2022/03/13 13:10:57;;;;;;;12.80;8.02;;;;;;;;;;10256963;28;20487;-68
2022/03/13 13:16:00;;;;;;;;;;;;;;;;;;10257976;28;20053;-68
2022/03/13 13:21:03;;;;;;;;;;;;;;;;;;10280925;28;20379;-68
2022/03/13 13:26:07;;;;;;;;;;;;;;;;;;10278920;28;20008;-67
2022/03/13 13:31:15;;;;;;;14.77;7.60;;;;;;;;;;10272211;28;19941;-67
2022/03/13 13:36:20;;;;;;;17.38;8.85;;;;;;;;;;10247582;28;20050;-68
2022/03/13 13:41:24;;;;;;;14.98;7.85;;;;;;;;;;10268649;28;20334;-68
2022/03/13 13:46:31;;;;;;;15.43;7.53;;;;;;;;;;10252186;28;20078;-69
2022/03/13 13:51:36;;;;;;;12.45;6.78;;;;;;;;;;10278983;28;20171;-68
2022/03/13 13:56:40;;;;;;;12.95;7.93;;;;;;;;;;10258402;28;20047;-67
2022/03/13 14:01:45;;;;;;;12.88;7.47;;;;;;;;;;10260485;28;20466;-68
2022/03/13 14:06:49;;;;;;;15.43;8.13;;;;;;;;;;10257116;28;20055;-68
2022/03/13 14:11:52;;;;;;;13.20;6.50;;;;;;;;;;10280023;28;20592;-68
2022/03/13 14:16:56;;;;;;;15.55;7.07;;;;;;;;;;10286770;23;20543;-74
2022/03/13 14:21:59;;;;;;;16.20;7.53;;;;;;;;;;10284436;28;20035;-72
2022/03/13 14:27:03;;;;;;;21.52;7.40;;;;;;;;;;10281749;28;20105;-72
2022/03/13 14:32:07;;;;;;;12.23;6.90;;;;;;;;;;10280272;28;20126;-72
2022/03/13 14:37:11;;;;;;;14.02;7.07;;;;;;;;;;10264034;28;20532;-73
2022/03/13 14:42:34;;;;;;;16.50;6.47;;;;;;;;;;10276903;28;20041;-72
2022/03/13 14:47:38;;;;;;;13.07;7.55;;;;;;;;;;10253613;28;20135;-72
2022/03/13 14:53:02;;;;;;;18.52;8.15;;;;;;;;;;10283234;28;20149;-71
2022/03/13 14:58:05;;;;;;;15.88;8.15;;;;;;;;;;10275438;28;20107;-72
2022/03/13 15:03:08;;;;;;;;;;;;;;;;;;10263912;28;20093;-72
2022/03/13 15:08:13;;;;;;;19.60;7.55;;;;;;;;;;10283567;28;19948;-72
2022/03/13 15:13:16;;;;;;;15.45;7.68;;;;;;;;;;10261973;28;20557;-74
2022/03/13 15:18:19;;;;;;;;;;;;;;;;;;10266088;28;20172;-72
2022/03/13 15:23:25;;;;;;;15.17;6.87;;;;;;;;;;10282700;28;19926;-72
2022/03/13 15:28:28;;;;;;;15.73;7.25;;;;;;;;;;10258079;28;20066;-71
2022/03/13 15:33:32;;;;;;;14.40;6.68;;;;;;;;;;10263729;28;20049;-73
2022/03/13 15:38:36;;;;;;;14.80;7.15;;;;;;;;;;10278348;28;20146;-73
2022/03/13 15:43:41;;;;;;;16.48;7.25;;;;;;;;;;10264657;28;20133;-73
2022/03/13 15:48:44;;;;;;;17.17;7.20;;;;;;;;;;10278825;28;20043;-73
2022/03/13 15:53:48;;;;;;;14.50;6.50;;;;;;;;;;10265730;28;20529;-73
2022/03/13 15:58:52;;;;;;;13.27;6.75;;;;;;;;;;10267382;28;20040;-73
2022/03/13 16:03:59;;;;;;;14.43;7.10;;;;;;;;;;10263908;28;20054;-70
2022/03/13 16:09:01;;;;;;;;;;;;;;;;;;10275327;28;20142;-74
2022/03/13 16:14:06;;;;;;;14.18;6.85;;;;;;;;;;10283302;28;19957;-73
2022/03/13 16:19:11;;;;;;;15.23;6.78;;;;;;;;;;10279108;28;20043;-72
2022/03/13 16:24:14;;;;;;;12.90;6.40;;;;;;;;;;10280107;28;20133;-73
2022/03/13 16:29:17;;;;;;;;;;;;;;;;;;10258443;28;20058;-73
2022/03/13 16:34:22;;;;;;;15.03;6.43;;;;;;;;;;10268610;28;19969;-73
2022/03/13 16:39:25;;;;;;;15.20;6.60;;;;;;;;;;10266232;28;20038;-75
2022/03/13 16:44:28;;;;;;;15.27;5.83;;;;;;;;;;10267201;28;20055;-73
2022/03/13 16:49:32;;;;;;;14.35;6.45;;;;;;;;;;10261619;28;20451;-73
2022/03/13 16:54:35;;;;;;;13.18;5.78;;;;;;;;;;10277912;28;20077;-71
2022/03/13 16:59:38;;;;;;;14.07;5.63;;;;;;;;;;10265830;28;20574;-71
2022/03/13 17:04:42;;;;;;;16.67;5.40;;;;;;;;;;10276020;28;20069;-72
2022/03/13 17:09:45;;;;;;;12.93;5.43;;;;;;;;;;10258989;28;20065;-72
2022/03/13 17:14:49;;;;;;;12.45;4.93;;;;;;;;;;10258874;28;20554;-72
2022/03/13 17:19:52;;;;;;;;;;;;;;;;;;10286070;28;20414;-72
2022/03/13 17:24:58;;;;;;;12.50;4.82;;;;;;;;;;10270949;28;20007;-72
2022/03/13 17:30:01;;;;;;;12.05;4.95;;;;;;;;;;10284850;28;20474;-74
2022/03/13 17:35:05;;;;;;;9.30;4.30;;;;;;;;;;10287437;28;20034;-73
2022/03/13 17:40:10;;;;;;;12.03;5.40;;;;;;;;;;10269360;28;20042;-73
2022/03/13 17:45:14;;;;;;;11.77;4.95;;;;;;;;;;10271307;28;20050;-73
2022/03/13 17:50:17;;;;;;;9.80;4.43;;;;;;;;;;10282427;28;20035;-72
2022/03/13 17:55:24;;;;;;;10.75;4.53;;;;;;;;;;10273335;28;20072;-72
2022/03/13 18:00:26;;;;;;;9.05;4.10;;;;;;;;;;10252293;28;20482;-71
2022/03/13 18:05:29;;;;;;;11.77;5.05;;;;;;;;;;10263564;28;20047;-72
2022/03/13 18:10:34;;;;;;;14.85;5.45;;;;;;;;;;10254330;28;20045;-72
2022/03/13 18:15:37;;;;;;;14.27;5.40;;;;;;;;;;10275167;28;20061;-74
2022/03/13 18:20:40;;;;;;;10.70;5.10;;;;;;;;;;10254977;28;20039;-74
2022/03/13 18:25:44;;;;;;;10.50;4.22;;;;;;;;;;10278890;28;20053;-71
2022/03/13 18:30:48;;;;;;;17.13;7.18;;;;;;;;;;10257808;28;20039;-74
2022/03/13 18:35:51;;;;;;;10.60;4.97;;;;;;;;;;10256255;28;20532;-73
2022/03/13 18:40:57;;;;;;;13.63;5.28;;;;;;;;;;10273414;28;20044;-71
2022/03/13 18:46:00;;;;;;;10.43;5.13;;;;;;;;;;10251950;28;20143;-72
2022/03/13 18:51:03;;;;;;;12.73;5.20;;;;;;;;;;10263856;28;20447;-72
2022/03/13 18:56:07;;;;;;;10.40;4.87;;;;;;;;;;10255662;28;20043;-71
2022/03/13 19:01:10;;;;;;;12.27;4.97;;;;;;;;;;10261439;28;20387;-72
2022/03/13 19:06:16;;;;;;;10.43;4.78;;;;;;;;;;10273754;28;20039;-71
2022/03/13 19:11:20;;;;;;;12.70;5.93;;;;;;;;;;10264971;28;20042;-72
2022/03/13 19:16:24;;;;;;;11.70;4.90;;;;;;;;;;10265733;28;20051;-71
2022/03/13 19:21:27;;;;;;;9.68;4.45;;;;;;;;;;10260719;28;20085;-74
2022/03/13 19:26:33;;;;;;;11.80;4.83;;;;;;;;;;10263292;28;20046;-73
2022/03/13 19:31:35;;;;;;;11.50;5.10;;;;;;;;;;10257421;28;20302;-73
2022/03/13 19:36:39;;;;;;;14.90;5.47;;;;;;;;;;10258320;28;20045;-71
2022/03/13 19:41:44;;;;;;;12.48;4.80;;;;;;;;;;10280385;28;20046;-70
2022/03/13 19:46:50;;;;;;;13.43;4.93;;;;;;;;;;10278969;28;20078;-73
2022/03/13 19:51:53;;;;;;;11.30;5.45;;;;;;;;;;10274782;28;20114;-73
2022/03/13 19:56:57;;;;;;;13.32;5.60;;;;;;;;;;10260555;28;20094;-72
2022/03/13 20:02:04;;;;;;;10.30;4.75;;;;;;;;;;10275457;28;20031;-72
2022/03/13 20:07:07;;;;;;;10.23;4.35;;;;;;;;;;10260745;28;20101;-72
2022/03/13 20:12:13;;;;;;;18.88;5.68;;;;;;;;;;10283390;28;20051;-74
2022/03/13 20:17:16;;;;;;;15.18;6.00;;;;;;;;;;10280475;23;20051;-67
2022/03/13 20:22:19;;;;;;;13.48;6.55;;;;;;;;;;10259584;28;20051;-67
2022/03/13 20:27:23;;;;;;;14.50;5.97;;;;;;;;;;10278448;28;20043;-68
2022/03/13 20:32:26;;;;;;;14.23;6.07;;;;;;;;;;10260417;28;20161;-68
2022/03/13 20:37:29;;;;;;;15.93;6.13;;;;;;;;;;10261136;28;20089;-69
2022/03/13 20:42:33;;;;;;;17.50;6.70;;;;;;;;;;10259386;28;20043;-67
2022/03/13 20:47:38;;;;;;;;;;;;;;;;;;10271276;28;20064;-67
2022/03/13 20:52:41;;;;;;;16.08;6.53;;;;;;;;;;10260981;28;19930;-67
2022/03/13 20:57:46;;;;;;;15.88;6.05;;;;;;;;;;10254377;28;20467;-67
2022/03/13 21:02:49;;;;;;;13.95;5.63;;;;;;;;;;10258797;28;20140;-67
2022/03/13 21:07:53;;;;;;;12.48;5.50;;;;;;;;;;10273267;28;20043;-67
2022/03/13 21:12:58;;;;;;;19.00;5.82;;;;;;;;;;10281713;28;20038;-65
2022/03/13 21:18:01;;;;;;;16.40;5.72;;;;;;;;;;10259266;28;20082;-69
2022/03/13 21:23:04;;;;;;;12.15;5.30;;;;;;;;;;10276219;28;20035;-67
2022/03/13 21:28:08;;;;;;;14.00;6.30;;;;;;;;;;10282498;28;20050;-67
2022/03/13 21:33:15;;;;;;;16.40;6.40;;;;;;;;;;10261618;28;20101;-67
2022/03/13 21:38:18;;;;;;;13.35;5.60;;;;;;;;;;10292820;28;20044;-68
2022/03/13 21:43:23;;;;;;;14.15;5.75;;;;;;;;;;10317687;28;20034;-67
2022/03/13 21:48:25;;;;;;;;;;;;;;;;;;10304491;28;20511;-68
2022/03/13 21:53:28;;;;;;;13.10;5.43;;;;;;;;;;10271802;28;19938;-68
2022/03/13 21:58:33;;;;;;;16.10;5.75;;;;;;;;;;10279426;28;20051;-67
2022/03/13 22:03:36;;;;;;;18.90;6.32;;;;;;;;;;10271532;28;20118;-67
2022/03/13 22:08:39;;;;;;;12.25;5.47;;;;;;;;;;10261642;28;20126;-64
2022/03/13 22:13:46;;;;;;;12.93;6.07;;;;;;;;;;10268562;28;20688;-67
2022/03/13 22:18:53;;;;;;;10.60;5.00;;;;;;;;;;10257386;28;20487;-67
2022/03/13 22:23:56;;;;;;;13.47;5.90;;;;;;;;;;10277337;28;20043;-67
2022/03/13 22:29:01;;;;;;;6.50;3.87;;;;;;;;;;10267580;28;20117;-66
2022/03/13 22:34:03;;;;;;;6.33;2.93;;;;;;;;;;10294926;28;20065;-68
2022/03/13 22:39:06;;;;;;;13.20;5.83;;;;;;;;;;10263206;28;20113;-66
2022/03/13 22:44:11;;;;;;;18.50;6.90;;;;;;;;;;10266055;28;20153;-67
2022/03/13 22:49:14;;;;;;;18.43;6.77;;;;;;;;;;10281458;28;20454;-67
2022/03/13 22:54:19;;;;;;;14.32;6.20;;;;;;;;;;10278232;28;20117;-67
2022/03/13 22:59:23;;;;;;;17.03;6.30;;;;;;;;;;10268668;28;20467;-67
2022/03/13 23:04:26;;;;;;;13.15;5.25;;;;;;;;;;10260589;28;20043;-67
2022/03/13 23:09:30;;;;;;;16.23;6.77;;;;;;;;;;10264917;28;20117;-66
2022/03/13 23:14:34;;;;;;;12.55;5.60;;;;;;;;;;10278153;28;20109;-67
2022/03/13 23:19:37;;;;;;;12.60;6.07;;;;;;;;;;10286908;28;20078;-66
2022/03/13 23:24:40;;;;;;;17.80;6.13;;;;;;;;;;10261470;28;20456;-67
2022/03/13 23:29:45;;;;;;;13.30;5.30;;;;;;;;;;10269864;28;20068;-65
2022/03/13 23:34:48;;;;;;;19.43;6.80;;;;;;;;;;10259233;28;20519;-66
2022/03/13 23:39:51;;;;;;;27.10;9.93;;;;;;;;;;10260063;28;20066;-67
2022/03/13 23:44:55;;;;;;;36.47;11.43;;;;;;;;;;10274351;28;20035;-67
2022/03/13 23:49:58;;;;;;;12.13;5.18;;;;;;;;;;10279829;28;20057;-67
2022/03/13 23:55:00;;;;;;;16.87;6.40;;;;;;;;;;10275831;28;20428;-66
